Heydar Aliyev International Airport
UBBB : now visible

Airfield :











YOU CAN JOIN US ON...

 
LOGIN :

Register | Disclaimer

   EN    FR    IT 

 









Legend :    VFR   Marginal VFR   IFR   Intensive IFR   Very Intensive IFR
Visi :
Ceiling :
>= 8 km
>= 3000ft
5 to 8 km
1000 to 3000 ft
1500m to 5 km
500 to 1000 ft
800 to 1500m
200 to 500 ft
< 800m
< 200 ft
Symbols :   Thunderstorms  Fog  Heavy snow  Heavy precipitations  Wind > 20 kt







- Airport Elevation : 10 ft
- IATA code : GYD


UBBB - Heydar Aliyev International

CURRENT METAR :
  • 152100Z 32005KT CAVOK 20/18 Q1011 R88/CLRD// NOSIG

EXPIRED METARs :
  • 152030Z 33006KT CAVOK 20/19 Q1011 R88/D NOSIG
  • 152000Z 32005KT CAVOK 20/18 Q1011 R88/CLRD// NOSIG
  • 151930Z 31002KT CAVOK 20/18 Q1011 R88/D NOSIG
  • 151900Z 36007KT CAVOK 21/19 Q1011 R88/CLRD// NOSIG
  • 151830Z 35005KT CAVOK 21/19 Q1011 R88/D NOSIG

TAF TAF UBBB
Valid from the 15 at 18:00 until the 16 at 18:00 UTC


151713Z 1518/1618 32006KT CAVOK TX30/1610Z TN19/1601Z
TEMPO 1518/1606 36006KT SCT010 FEW050CB BKN100
BECMG 1606/1608 14012KT
TEMPO 1608/1615 18006KT
BECMG 1615/1617 34012KT
UBBA FIR / Asia



MET'MAP, your aeronautical weather chart ! - Copyright ORBIFLY December 2007 - Disclaimer

ORBIFLY MET'MAP TEAM :

Programming & Development : Alexandra Zaïnal
Concept & Development : Baudouin d'Aumeries
Co-Development & Prog : Marc-Olivier Méhu
Technical & hardware support : Manuel Goepfert

Contact : metmap@orbifly.com




SOURCES & CREDITS :

   NOAA       Earth
Advisory